createdAt,value
2022-12-11T00:02:10.144Z,77.45
2022-12-11T00:04:36.888Z,77.18
2022-12-11T00:07:03.590Z,76.37
2022-12-11T00:09:31.276Z,77.04
2022-12-11T00:11:58.082Z,77.00
2022-12-11T00:14:24.887Z,77.19
2022-12-11T00:16:52.032Z,76.86
2022-12-11T00:19:18.858Z,77.67
2022-12-11T00:21:45.815Z,77.04
2022-12-11T00:24:12.589Z,77.99
2022-12-11T00:26:39.378Z,77.29
2022-12-11T00:29:06.272Z,77.37
2022-12-11T00:31:33.086Z,77.12
2022-12-11T00:34:01.585Z,76.47
2022-12-11T00:36:28.303Z,77.38
2022-12-11T00:38:55.752Z,76.19
2022-12-11T00:41:23.366Z,75.95
2022-12-11T00:43:50.120Z,75.82
2022-12-11T00:46:16.987Z,75.19
2022-12-11T00:48:44.902Z,75.49
2022-12-11T00:51:11.894Z,76.15
2022-12-11T00:53:45.176Z,75.85
2022-12-11T00:56:13.865Z,75.75
2022-12-11T00:58:40.894Z,76.08
2022-12-11T01:01:12.881Z,76.05
2022-12-11T01:03:40.737Z,76.11
2022-12-11T01:06:08.175Z,76.56
2022-12-11T01:08:38.500Z,76.65
2022-12-11T01:11:07.652Z,76.50
2022-12-11T01:13:35.016Z,76.84
2022-12-11T01:16:06.317Z,76.82
2022-12-11T01:18:33.102Z,77.10
2022-12-11T01:20:59.898Z,76.55
2022-12-11T01:23:27.101Z,76.91
2022-12-11T01:25:54.029Z,76.84
2022-12-11T01:28:21.127Z,76.92
2022-12-11T01:30:48.947Z,76.92
2022-12-11T01:33:17.003Z,76.65
2022-12-11T01:35:45.135Z,76.68
2022-12-11T01:38:13.831Z,76.39
2022-12-11T01:40:52.531Z,76.49
2022-12-11T01:43:19.549Z,76.94
2022-12-11T01:45:47.536Z,77.11
2022-12-11T01:48:21.399Z,77.26
2022-12-11T01:50:54.175Z,77.26
2022-12-11T01:53:27.255Z,76.86
2022-12-11T01:55:54.917Z,77.15
2022-12-11T01:58:22.729Z,76.90
2022-12-11T02:00:49.563Z,76.94
2022-12-11T02:03:17.321Z,77.08
2022-12-11T02:05:44.085Z,76.86
2022-12-11T02:08:12.331Z,76.95
2022-12-11T02:10:46.252Z,76.86
2022-12-11T02:13:50.743Z,76.72
2022-12-11T02:16:31.844Z,76.89
2022-12-11T02:19:03.350Z,77.06
2022-12-11T02:21:34.761Z,77.17
2022-12-11T02:24:20.155Z,77.41
2022-12-11T02:26:56.949Z,77.54
2022-12-11T02:29:29.925Z,77.57
2022-12-11T02:32:03.676Z,77.59
2022-12-11T02:34:42.529Z,77.83
2022-12-11T02:37:35.338Z,77.71
2022-12-11T02:40:02.860Z,77.77
2022-12-11T02:42:32.409Z,77.88
2022-12-11T02:44:59.779Z,77.95
2022-12-11T02:47:28.199Z,77.57
2022-12-11T02:49:54.994Z,77.02
2022-12-11T02:52:22.246Z,77.33
2022-12-11T02:54:48.960Z,76.98
2022-12-11T02:57:19.768Z,76.97
2022-12-11T03:02:15.435Z,76.28
2022-12-11T03:04:42.251Z,76.25
2022-12-11T03:07:23.455Z,75.87
2022-12-11T03:09:51.156Z,75.83
2022-12-11T03:12:25.816Z,76.96
2022-12-11T03:14:52.832Z,76.29
2022-12-11T03:17:24.530Z,76.11
2022-12-11T03:20:01.961Z,76.35
2022-12-11T03:22:29.449Z,76.98
2022-12-11T03:25:04.272Z,77.11
2022-12-11T03:27:38.131Z,76.95
2022-12-11T03:30:07.544Z,77.36
2022-12-11T03:32:50.188Z,77.50
2022-12-11T03:35:26.444Z,78.09
2022-12-11T03:37:53.271Z,77.53
2022-12-11T03:40:20.818Z,77.36
2022-12-11T03:42:51.068Z,76.93
2022-12-11T03:45:18.784Z,76.53
2022-12-11T03:47:45.925Z,76.46
2022-12-11T03:50:14.508Z,76.54
2022-12-11T03:52:45.708Z,76.56
2022-12-11T03:55:14.489Z,76.61
2022-12-11T03:57:41.265Z,75.78
2022-12-11T04:00:10.094Z,76.69
2022-12-11T04:02:36.808Z,76.59
2022-12-11T04:05:03.568Z,76.92
2022-12-11T04:07:30.480Z,77.08
2022-12-11T04:09:57.324Z,77.12
2022-12-11T04:12:43.116Z,76.92
2022-12-11T04:15:11.139Z,75.81
2022-12-11T04:17:51.020Z,75.62
2022-12-11T04:20:38.167Z,75.73
2022-12-11T04:23:25.269Z,75.32
2022-12-11T04:25:52.082Z,74.83
2022-12-11T04:28:18.848Z,74.53
2022-12-11T04:30:51.797Z,74.26
2022-12-11T04:33:18.966Z,74.55
2022-12-11T04:35:45.694Z,73.80
2022-12-11T04:38:12.527Z,73.72
2022-12-11T04:40:40.394Z,72.66
2022-12-11T04:43:07.109Z,72.36
2022-12-11T04:45:34.004Z,72.72
2022-12-11T04:48:00.973Z,72.64
2022-12-11T04:50:27.705Z,72.36
2022-12-11T04:52:55.237Z,70.84
2022-12-11T04:55:22.105Z,70.15
2022-12-11T04:57:48.824Z,71.38
2022-12-11T05:00:16.972Z,71.61
2022-12-11T05:02:44.253Z,71.31
2022-12-11T05:05:11.410Z,71.48
2022-12-11T05:07:38.306Z,71.41
2022-12-11T05:10:05.767Z,71.28
2022-12-11T05:12:32.760Z,70.02
2022-12-11T05:14:59.770Z,70.98
2022-12-11T05:17:26.530Z,71.23
2022-12-11T05:19:53.342Z,70.63
2022-12-11T05:22:20.413Z,70.17
2022-12-11T05:24:47.121Z,71.37
2022-12-11T05:27:14.170Z,71.58
2022-12-11T05:29:43.704Z,72.70
2022-12-11T05:32:10.708Z,73.26
2022-12-11T05:34:37.423Z,73.92
2022-12-11T05:37:04.189Z,74.79
2022-12-11T05:39:30.950Z,74.48
2022-12-11T05:41:57.649Z,74.62
2022-12-11T05:44:24.754Z,75.41
2022-12-11T05:46:51.571Z,75.46
2022-12-11T05:49:20.034Z,76.05
2022-12-11T05:51:47.046Z,76.14
2022-12-11T05:54:13.969Z,76.23
2022-12-11T05:56:41.046Z,76.52
2022-12-11T05:59:09.159Z,76.69
2022-12-11T06:01:42.786Z,77.09
2022-12-11T06:04:10.319Z,77.14
2022-12-11T06:06:37.111Z,77.38
2022-12-11T06:09:04.428Z,77.56
2022-12-11T06:11:31.650Z,77.62
2022-12-11T06:13:58.703Z,77.06
2022-12-11T06:16:25.489Z,77.25
2022-12-11T06:18:57.020Z,76.80
2022-12-11T06:21:27.652Z,76.97
2022-12-11T06:23:55.094Z,76.64
2022-12-11T06:26:21.889Z,76.78
2022-12-11T06:28:48.817Z,76.57
2022-12-11T06:31:15.724Z,76.70
2022-12-11T06:33:42.590Z,76.47
2022-12-11T06:36:15.756Z,76.39
2022-12-11T06:38:42.622Z,76.51
2022-12-11T06:41:09.958Z,76.55
2022-12-11T06:43:37.824Z,76.92
2022-12-11T06:46:10.109Z,77.14
2022-12-11T06:48:37.230Z,77.13
2022-12-11T06:51:08.096Z,77.14
2022-12-11T06:53:35.416Z,76.24
2022-12-11T06:56:07.456Z,76.15
2022-12-11T06:58:34.415Z,76.38
2022-12-11T07:01:01.291Z,76.83
2022-12-11T07:03:28.336Z,77.24
2022-12-11T07:05:59.389Z,77.59
2022-12-11T07:08:28.216Z,77.14
2022-12-11T07:10:55.070Z,77.66
2022-12-11T07:13:21.790Z,77.66
2022-12-11T07:15:48.501Z,77.86
2022-12-11T07:18:15.330Z,77.96
2022-12-11T07:20:42.125Z,77.87
2022-12-11T07:23:10.916Z,77.33
2022-12-11T07:25:37.753Z,77.59
2022-12-11T07:28:04.684Z,77.47
2022-12-11T07:30:31.897Z,78.13
2022-12-11T07:33:01.033Z,77.87
2022-12-11T07:35:28.145Z,78.57
2022-12-11T07:37:55.302Z,78.42
2022-12-11T07:40:22.205Z,78.37
2022-12-11T07:42:49.192Z,77.63
2022-12-11T07:45:15.957Z,77.24
2022-12-11T07:47:43.041Z,76.97
2022-12-11T07:50:10.691Z,76.14
2022-12-11T07:52:38.151Z,75.88
2022-12-11T07:55:05.462Z,75.39
2022-12-11T07:57:33.634Z,75.54
2022-12-11T08:00:00.991Z,75.35
2022-12-11T08:02:30.215Z,75.31
2022-12-11T08:05:00.998Z,75.41
2022-12-11T08:07:27.865Z,74.83
2022-12-11T08:09:54.559Z,74.35
2022-12-11T08:12:21.453Z,73.71
2022-12-11T08:14:48.240Z,72.60
2022-12-11T08:17:15.357Z,71.52
2022-12-11T08:19:42.135Z,70.54
2022-12-11T08:22:08.844Z,70.09
2022-12-11T08:24:38.833Z,69.73
2022-12-11T08:27:05.836Z,70.00
2022-12-11T08:29:33.652Z,69.82
2022-12-11T08:32:00.462Z,69.81
2022-12-11T08:34:27.360Z,69.70
2022-12-11T08:37:00.449Z,69.45
2022-12-11T08:39:32.611Z,68.85
2022-12-11T08:41:59.321Z,68.57
2022-12-11T08:44:26.095Z,68.37
2022-12-11T08:46:52.857Z,68.51
2022-12-11T08:49:19.789Z,68.87
2022-12-11T08:51:46.485Z,68.52
2022-12-11T08:54:13.191Z,68.49
2022-12-11T08:56:40.111Z,68.30
2022-12-11T08:59:09.622Z,69.16
2022-12-11T09:01:36.436Z,68.73
2022-12-11T09:04:04.849Z,69.28
2022-12-11T09:06:32.601Z,68.73
2022-12-11T09:08:59.986Z,68.57
2022-12-11T09:11:29.032Z,68.20
2022-12-11T09:13:56.060Z,68.38
2022-12-11T09:16:23.599Z,68.38
2022-12-11T09:18:51.142Z,67.75
2022-12-11T09:21:19.917Z,68.07
2022-12-11T09:23:46.760Z,67.56
2022-12-11T09:26:15.341Z,67.50
2022-12-11T09:28:46.232Z,67.13
2022-12-11T09:31:16.582Z,66.79
2022-12-11T09:33:43.926Z,66.21
2022-12-11T09:36:11.134Z,66.66
2022-12-11T09:38:40.845Z,65.39
2022-12-11T09:41:36.127Z,66.17
2022-12-11T09:44:24.291Z,65.84
2022-12-11T09:46:51.550Z,65.80
2022-12-11T09:49:29.332Z,65.76
2022-12-11T09:52:20.687Z,65.95
2022-12-11T09:54:52.649Z,66.00
2022-12-11T09:57:40.397Z,66.33
2022-12-11T10:00:20.783Z,65.35
2022-12-11T10:03:09.405Z,65.17
2022-12-11T10:06:04.601Z,64.48
2022-12-11T10:08:53.489Z,64.99
2022-12-11T10:11:34.052Z,64.29
2022-12-11T10:14:34.917Z,63.92
2022-12-11T10:17:10.817Z,63.67
2022-12-11T10:19:37.703Z,63.79
2022-12-11T10:22:04.832Z,64.15
2022-12-11T10:27:31.783Z,64.60
2022-12-11T10:30:22.710Z,65.01
2022-12-11T10:33:02.515Z,65.16
2022-12-11T10:35:57.388Z,65.61
2022-12-11T10:38:29.551Z,64.91
2022-12-11T10:41:00.040Z,64.68
2022-12-11T10:43:40.133Z,64.36
2022-12-11T10:46:12.965Z,64.01
2022-12-11T10:48:53.330Z,62.87
2022-12-11T10:51:21.791Z,61.77
2022-12-11T10:53:56.251Z,61.59
2022-12-11T10:56:29.855Z,60.97
2022-12-11T10:58:58.747Z,60.19
2022-12-11T11:01:27.031Z,60.35
2022-12-11T11:04:05.393Z,60.02
2022-12-11T11:06:32.497Z,59.69
2022-12-11T11:09:01.348Z,59.07
2022-12-11T11:11:33.924Z,58.63
2022-12-11T11:14:05.290Z,55.81
2022-12-11T11:16:32.087Z,56.81
2022-12-11T11:18:59.176Z,57.06
2022-12-11T11:21:26.109Z,58.35
2022-12-11T11:23:53.856Z,59.32
2022-12-11T11:26:21.506Z,61.37
2022-12-11T11:28:53.194Z,59.26
2022-12-11T11:31:20.545Z,61.47
2022-12-11T11:33:57.021Z,59.92
2022-12-11T11:36:25.797Z,61.88
2022-12-11T11:39:14.123Z,62.23
2022-12-11T11:42:05.085Z,62.35
2022-12-11T11:44:41.410Z,63.05
2022-12-11T11:47:24.462Z,62.40
2022-12-11T11:49:55.897Z,63.12
2022-12-11T11:52:35.268Z,63.07
2022-12-11T11:55:22.500Z,61.80
2022-12-11T11:58:11.124Z,62.74
2022-12-11T12:00:38.272Z,61.89
2022-12-11T12:03:18.322Z,61.00
2022-12-11T12:06:16.270Z,61.10
2022-12-11T12:09:03.869Z,61.85
2022-12-11T12:11:49.673Z,61.51
2022-12-11T12:17:19.481Z,60.85
2022-12-11T12:19:59.151Z,61.30
2022-12-11T12:23:03.755Z,58.98
2022-12-11T12:25:53.387Z,59.38
2022-12-11T12:28:26.629Z,58.85
2022-12-11T12:31:21.952Z,57.32
2022-12-11T12:34:07.611Z,57.60
2022-12-11T12:36:56.516Z,59.67
2022-12-11T12:39:36.406Z,58.67
2022-12-11T12:42:18.654Z,60.28
2022-12-11T12:44:58.317Z,60.33
2022-12-11T12:47:26.797Z,60.78
2022-12-11T12:49:53.627Z,61.29
2022-12-11T12:52:29.191Z,61.94
2022-12-11T12:54:56.727Z,60.91
2022-12-11T12:57:23.504Z,60.89
2022-12-11T12:59:54.501Z,61.00
2022-12-11T13:02:21.263Z,60.92
2022-12-11T13:04:56.754Z,61.08
2022-12-11T13:07:26.769Z,61.46
2022-12-11T13:10:08.548Z,61.79
2022-12-11T13:12:45.540Z,62.78
2022-12-11T13:15:36.415Z,61.63
2022-12-11T13:18:05.166Z,59.44
2022-12-11T13:20:32.633Z,60.96
2022-12-11T13:23:19.877Z,61.98
2022-12-11T13:25:54.358Z,62.43
2022-12-11T13:28:24.841Z,63.47
2022-12-11T13:31:02.642Z,64.29
2022-12-11T13:33:31.748Z,63.30
2022-12-11T13:36:16.694Z,64.09
2022-12-11T13:39:01.281Z,62.87
2022-12-11T13:41:28.836Z,62.64
2022-12-11T13:43:55.665Z,64.42
2022-12-11T13:46:28.470Z,64.41
2022-12-11T13:48:59.377Z,63.99
2022-12-11T13:51:30.283Z,61.82
2022-12-11T13:54:16.965Z,63.07
2022-12-11T13:56:57.537Z,64.15
2022-12-11T13:59:35.624Z,63.92
2022-12-11T14:02:17.687Z,63.55
2022-12-11T14:04:44.701Z,64.28
2022-12-11T14:07:12.605Z,64.00
2022-12-11T14:09:43.540Z,64.64
2022-12-11T14:12:16.177Z,65.23
2022-12-11T14:14:45.895Z,65.13
2022-12-11T14:17:17.501Z,65.14
2022-12-11T14:19:49.841Z,65.57
2022-12-11T14:22:21.457Z,64.79
2022-12-11T14:24:55.861Z,64.68
2022-12-11T14:27:22.761Z,65.43
2022-12-11T14:29:49.635Z,65.39
2022-12-11T14:32:35.566Z,65.11
2022-12-11T14:35:04.244Z,63.98
2022-12-11T14:37:30.960Z,63.33
2022-12-11T14:40:04.004Z,64.82
2022-12-11T14:42:41.419Z,64.73
2022-12-11T14:45:23.383Z,64.97
2022-12-11T14:47:50.180Z,65.50
2022-12-11T14:53:41.892Z,65.13
2022-12-11T14:56:09.438Z,64.96
2022-12-11T14:58:44.972Z,65.24
2022-12-11T15:01:28.963Z,65.40
2022-12-11T15:04:28.209Z,65.55
2022-12-11T15:06:55.356Z,66.59
2022-12-11T15:09:27.697Z,66.66
2022-12-11T15:12:16.519Z,66.88
2022-12-11T15:14:57.190Z,67.29
2022-12-11T15:17:28.930Z,67.55
2022-12-11T15:20:08.076Z,68.45
2022-12-11T15:22:35.717Z,68.72
2022-12-11T15:25:02.961Z,68.24
2022-12-11T15:27:39.045Z,69.20
2022-12-11T15:30:15.933Z,68.61
2022-12-11T15:32:42.731Z,68.98
2022-12-11T15:35:24.141Z,68.59
2022-12-11T15:37:55.024Z,68.68
2022-12-11T15:40:22.449Z,68.01
2022-12-11T15:42:49.171Z,68.71
2022-12-11T15:45:21.631Z,68.96
2022-12-11T15:47:48.748Z,69.42
2022-12-11T15:50:17.688Z,69.45
2022-12-11T15:52:44.532Z,70.00
2022-12-11T15:55:11.582Z,70.62
2022-12-11T15:57:38.779Z,70.69
2022-12-11T16:00:07.641Z,70.57
2022-12-11T16:02:34.419Z,70.33
2022-12-11T16:05:01.223Z,69.84
2022-12-11T16:07:28.039Z,69.69
2022-12-11T16:09:54.800Z,69.80
2022-12-11T16:12:21.519Z,70.44
2022-12-11T16:14:48.230Z,69.75
2022-12-11T16:17:15.435Z,69.88
2022-12-11T16:19:43.279Z,70.47
2022-12-11T16:22:10.481Z,70.80
2022-12-11T16:24:37.338Z,70.30
2022-12-11T16:27:04.553Z,70.80
2022-12-11T16:29:38.264Z,71.15
2022-12-11T16:32:05.124Z,71.25
2022-12-11T16:34:31.867Z,70.49
2022-12-11T16:36:59.753Z,71.04
2022-12-11T16:39:26.469Z,70.41
2022-12-11T16:41:53.894Z,70.43
2022-12-11T16:44:21.646Z,70.83
2022-12-11T16:46:48.769Z,70.80
2022-12-11T16:49:15.468Z,71.48
2022-12-11T16:51:43.394Z,71.51
2022-12-11T16:54:10.658Z,71.30
2022-12-11T16:56:38.012Z,71.74
2022-12-11T16:59:05.235Z,71.64
2022-12-11T17:01:32.632Z,71.45
2022-12-11T17:03:59.425Z,71.96
2022-12-11T17:06:26.150Z,71.69
2022-12-11T17:08:53.256Z,71.82
2022-12-11T17:11:20.815Z,71.82
2022-12-11T17:13:47.690Z,71.35
2022-12-11T17:16:15.982Z,71.80
2022-12-11T17:18:42.912Z,70.52
2022-12-11T17:21:14.361Z,70.32
2022-12-11T17:23:41.183Z,70.32
2022-12-11T17:26:08.077Z,70.90
2022-12-11T17:28:35.222Z,71.08
2022-12-11T17:31:28.579Z,71.14
2022-12-11T17:33:55.381Z,71.04
2022-12-11T17:36:22.102Z,71.07
2022-12-11T17:38:49.313Z,70.63
2022-12-11T17:41:20.441Z,70.38
2022-12-11T17:43:51.629Z,70.32
2022-12-11T17:46:18.976Z,69.29
2022-12-11T17:48:45.729Z,69.09
2022-12-11T17:51:13.198Z,68.13
2022-12-11T17:53:41.448Z,67.61
2022-12-11T17:56:08.389Z,66.06
2022-12-11T17:58:35.106Z,65.96
2022-12-11T18:01:09.209Z,66.66
2022-12-11T18:03:36.303Z,65.65
2022-12-11T18:06:04.978Z,65.65
2022-12-11T18:08:32.150Z,66.21
2022-12-11T18:11:17.887Z,65.72
2022-12-11T18:13:44.788Z,68.27
2022-12-11T18:16:30.397Z,66.53
2022-12-11T18:19:04.055Z,66.21
2022-12-11T18:21:33.714Z,67.50
2022-12-11T18:24:00.713Z,69.02
2022-12-11T18:26:27.438Z,67.79
2022-12-11T18:28:54.192Z,68.19
2022-12-11T18:31:21.059Z,68.12
2022-12-11T18:33:50.922Z,69.33
2022-12-11T18:36:18.623Z,69.87
2022-12-11T18:38:45.481Z,70.40
2022-12-11T18:41:12.469Z,70.56
2022-12-11T18:43:39.276Z,70.92
2022-12-11T18:46:07.543Z,71.31
2022-12-11T18:48:34.448Z,71.71
2022-12-11T18:51:01.576Z,72.26
2022-12-11T18:53:28.353Z,72.79
2022-12-11T18:56:00.173Z,73.09
2022-12-11T18:58:27.500Z,73.25
2022-12-11T19:00:59.727Z,73.39
2022-12-11T19:03:27.862Z,73.77
2022-12-11T19:05:54.654Z,73.61
2022-12-11T19:08:21.433Z,73.87
2022-12-11T19:10:48.628Z,73.68
2022-12-11T19:13:15.341Z,74.33
2022-12-11T19:15:43.636Z,74.72
2022-12-11T19:18:10.668Z,74.74
2022-12-11T19:20:50.942Z,74.46
2022-12-11T19:23:20.905Z,74.63
2022-12-11T19:25:47.740Z,74.46
2022-12-11T19:28:14.820Z,74.83
2022-12-11T19:30:42.965Z,74.62
2022-12-11T19:33:09.756Z,74.92
2022-12-11T19:35:37.849Z,74.64
2022-12-11T19:38:04.633Z,75.05
2022-12-11T19:40:32.622Z,75.01
2022-12-11T19:43:00.592Z,74.69
2022-12-11T19:45:29.583Z,74.82
2022-12-11T19:47:56.686Z,74.88
2022-12-11T19:50:23.510Z,75.12
2022-12-11T19:52:50.333Z,75.28
2022-12-11T19:55:17.706Z,75.46
2022-12-11T19:57:45.533Z,75.60
2022-12-11T20:00:12.549Z,75.73
2022-12-11T20:02:39.506Z,75.41
2022-12-11T20:05:06.583Z,75.67
2022-12-11T20:07:33.327Z,75.61
2022-12-11T20:10:00.282Z,75.82
2022-12-11T20:12:27.185Z,75.92
2022-12-11T20:14:54.192Z,75.50
2022-12-11T20:17:21.985Z,75.42
2022-12-11T20:19:49.081Z,75.90
2022-12-11T20:22:16.282Z,74.58
2022-12-11T20:24:43.005Z,74.99
2022-12-11T20:27:10.194Z,75.14
2022-12-11T20:29:37.355Z,75.73
2022-12-11T20:32:04.115Z,75.11
2022-12-11T20:34:30.960Z,74.73
2022-12-11T20:36:58.045Z,75.17
2022-12-11T20:39:24.773Z,75.09
2022-12-11T20:41:51.493Z,74.82
2022-12-11T20:44:18.455Z,75.09
2022-12-11T20:46:45.226Z,75.02
2022-12-11T20:49:11.928Z,74.98
2022-12-11T20:51:39.139Z,74.83
2022-12-11T20:54:06.315Z,75.33
2022-12-11T20:56:34.480Z,75.38
2022-12-11T20:59:01.258Z,75.82
2022-12-11T21:01:31.206Z,75.85
2022-12-11T21:03:58.429Z,75.41
2022-12-11T21:06:29.957Z,74.96
2022-12-11T21:09:03.916Z,74.65
2022-12-11T21:11:30.725Z,75.07
2022-12-11T21:13:57.618Z,75.28
2022-12-11T21:16:24.720Z,75.27
2022-12-11T21:18:51.673Z,75.04
2022-12-11T21:21:20.146Z,75.17
2022-12-11T21:23:46.941Z,75.02
2022-12-11T21:26:13.714Z,74.96
2022-12-11T21:28:40.597Z,75.30
2022-12-11T21:31:09.743Z,75.11
2022-12-11T21:33:36.479Z,75.44
2022-12-11T21:36:05.373Z,75.33
2022-12-11T21:38:32.523Z,75.11
2022-12-11T21:41:22.484Z,74.68
2022-12-11T21:45:03.380Z,73.91
2022-12-11T21:46:38.081Z,73.05
2022-12-11T21:49:05.045Z,73.49
2022-12-11T21:51:37.170Z,74.39
2022-12-11T21:54:05.796Z,73.88
2022-12-11T21:56:32.535Z,73.11
2022-12-11T21:58:59.499Z,73.09
2022-12-11T22:01:29.136Z,73.31
2022-12-11T22:03:56.992Z,73.32
2022-12-11T22:06:23.737Z,72.91
2022-12-11T22:08:50.821Z,73.30
2022-12-11T22:11:22.052Z,73.20
2022-12-11T22:13:52.205Z,73.05
2022-12-11T22:16:19.784Z,73.24
2022-12-11T22:18:50.253Z,72.94
2022-12-11T22:21:17.389Z,72.25
2022-12-11T22:23:44.977Z,71.30
2022-12-11T22:26:20.348Z,71.66
2022-12-11T22:28:48.061Z,71.38
2022-12-11T22:31:15.518Z,72.74
2022-12-11T22:33:42.656Z,73.19
2022-12-11T22:36:10.987Z,71.03
2022-12-11T22:38:38.140Z,69.08
2022-12-11T22:41:42.942Z,68.96
2022-12-11T22:44:15.273Z,66.85
2022-12-11T22:46:45.422Z,67.06
2022-12-11T22:49:16.609Z,68.01
2022-12-11T22:51:43.345Z,66.97
2022-12-11T22:54:14.915Z,66.47
2022-12-11T22:56:41.936Z,66.50
2022-12-11T22:59:09.474Z,69.29
2022-12-11T23:01:36.312Z,69.29
2022-12-11T23:04:03.269Z,69.30
2022-12-11T23:06:30.288Z,69.90
2022-12-11T23:08:58.598Z,71.03
2022-12-11T23:11:34.783Z,70.72
2022-12-11T23:14:03.773Z,70.82
2022-12-11T23:16:30.652Z,70.74
2022-12-11T23:19:00.256Z,70.39
2022-12-11T23:21:27.635Z,69.29
2022-12-11T23:23:54.743Z,69.61
2022-12-11T23:26:21.870Z,69.96
2022-12-11T23:28:49.745Z,70.62
2022-12-11T23:31:16.952Z,70.49
2022-12-11T23:33:45.171Z,70.19
2022-12-11T23:36:12.938Z,70.21
2022-12-11T23:38:40.801Z,70.10
2022-12-11T23:41:07.896Z,70.88
2022-12-11T23:43:34.911Z,70.84
2022-12-11T23:46:05.231Z,70.65
2022-12-11T23:48:32.860Z,72.26
2022-12-11T23:51:00.648Z,72.15
2022-12-11T23:53:28.284Z,72.40
2022-12-11T23:55:57.066Z,72.70
2022-12-11T23:58:26.674Z,73.08
